Main page
METAR-TAF:

METAR-TAF

Airports :

Bermuda, Bermuda

L.F. Wade International Airport

latitude: 32-22N, longitude: 064-41W, elevation: 6 m

Current weather observation

The report was made 22 minutes ago, at 04:55 UTC
Wind 4 kt from the Southeast
Temperature 17°C
Humidity 59%
Pressure 1028 hPa
Visibility 10 km or more
Broken clouds at a height of 3800 ft
Broken clouds at a height of 30000 ft

METAR: TXKF 260455Z 13004KT 9999 BKN038 BKN300 17/09 Q1028

Time: 02:17 (05:17 UTC)

Forecast

The report was made 5 hours and 42 minutes ago, at 23:35 UTC
Forecast valid from 26 at 00 UTC to 26 at 24 UTC
Wind 5 kt from variable directions
Visibility 10 km or more
Broken clouds at a height of 3500 ft
Becoming
from 26 at 08 UTC to 26 at 12 UTC
Wind 10 kt from the East/Northeast

TAF: TXKF 252335Z 2600/2624 VRB05KT 9999 BKN035 BECMG 2608/2612 07010KT

Weather observations and forecasts of more than 4000 airports (METAR and TAF reports).

The available stations are represented by yellow and red dots on the map.

Hover mouse over dot to see the name of the station.

Then click to see weather observations and forecasts.

To change the map : click on the green buttons with a black cross to zoom in, on the green button with a dash to zoom out, or on the green arrows for adjacent maps.


METAR-TAF: